Wetterdaten: November 2013
Datum Temp Feuchte Luftdruck Regen Wind Richtung Sonnenschein UV Solar Windben
01.11.2013 8,0 C 94 % 1013,3 hPa 2,2 l/m 8,7 km/h S 0,00 h 0,6 UV-I 56 W/m 13,7 km/h
02.11.2013 9,9 C 98 % 1001,9 hPa 7,8 l/m 7,4 km/h S 0,00 h 0,5 UV-I 30 W/m 17,3 km/h
03.11.2013 7,9 C 83 % 1001,1 hPa 7,4 l/m 14,3 km/h S-SW 1,08 h 0,6 UV-I 92 W/m 29,0 km/h
04.11.2013 7,6 C 92 % 988,6 hPa 11,4 l/m 16,6 km/h S 0,58 h 0,7 UV-I 92 W/m 35,4 km/h
05.11.2013 4,7 C 90 % 994,3 hPa 6,6 l/m 11,9 km/h S-SO 1,25 h 0,8 UV-I 102 W/m 21,7 km/h
06.11.2013 7,7 C 94 % 1001,1 hPa 8,6 l/m 2,8 km/h S-SW 0,17 h 0,6 UV-I 60 W/m 16,5 km/h
07.11.2013 9,9 C 97 % 1006,3 hPa 12,8 l/m 2,7 km/h S-SW 0,00 h 0,5 UV-I 42 W/m 8,4 km/h
08.11.2013 9,0 C 97 % 1005,6 hPa 5,0 l/m 0,1 km/h S-SO 0,00 h 0,5 UV-I 54 W/m 1,2 km/h
09.11.2013 7,6 C 86 % 1006,3 hPa 0,0 l/m 5,3 km/h S 1,33 h 0,7 UV-I 117 W/m 14,9 km/h
10.11.2013 4,5 C 93 % 1011,3 hPa 1,2 l/m 2,8 km/h NW 0,17 h 0,6 UV-I 45 W/m 10,4 km/h
11.11.2013 4,4 C 89 % 1029,5 hPa 0,0 l/m 3,5 km/h S-SO 4,42 h 0,9 UV-I 151 W/m 7,6 km/h
12.11.2013 5,8 C 86 % 1025,1 hPa 0,6 l/m 4,7 km/h S 0,33 h 0,7 UV-I 86 W/m 8,8 km/h
13.11.2013 3,5 C 96 % 1029,7 hPa 0,2 l/m 0,6 km/h N-NW 1,00 h 0,6 UV-I 87 W/m 2,0 km/h
14.11.2013 2,7 C 93 % 1020,3 hPa 0,2 l/m 0,8 km/h S 3,50 h 0,8 UV-I 149 W/m 2,4 km/h
15.11.2013 2,5 C 91 % 1028,7 hPa 0,0 l/m 0,1 km/h N-NO 4,25 h 0,7 UV-I 142 W/m 1,6 km/h
16.11.2013 1,4 C 89 % 1030,1 hPa 0,2 l/m 0,1 km/h S-SO 5,83 h 0,8 UV-I 184 W/m 1,2 km/h
17.11.2013 4,1 C 96 % 1023,1 hPa 0,0 l/m 0,1 km/h SO 0,00 h 0,5 UV-I 53 W/m 2,4 km/h
18.11.2013 3,8 C 93 % 1009,6 hPa 0,2 l/m 1,1 km/h S-SW 0,00 h 0,0 UV-I 19 W/m 11,3 km/h
19.11.2013 4,3 C 91 % 1006,7 hPa 1,4 l/m 0,0 km/h N 0,58 h 0,6 UV-I 74 W/m 0,0 km/h
20.11.2013 1,5 C 95 % 1003,1 hPa 0,6 l/m 1,0 km/h N 0,75 h 0,6 UV-I 70 W/m 2,8 km/h
21.11.2013 0,8 C 96 % 1004,3 hPa 0,4 l/m 3,8 km/h SO 0,00 h 0,5 UV-I 55 W/m 13,7 km/h
22.11.2013 2,2 C 98 % 1012,0 hPa 2,2 l/m 5,7 km/h N-NO 0,00 h 0,0 UV-I 27 W/m 18,5 km/h
23.11.2013 4,3 C 98 % 1018,3 hPa 0,4 l/m 2,0 km/h N-NO 0,00 h 0,0 UV-I 14 W/m 4,4 km/h
24.11.2013 0,4 C 94 % 1023,2 hPa 0,6 l/m 2,0 km/h N-NW 0,75 h 0,0 UV-I 44 W/m 4,4 km/h
25.11.2013 -1,5 C 96 % 1030,2 hPa 0,2 l/m 0,0 km/h N 0,00 h 0,0 UV-I 28 W/m 0,8 km/h
26.11.2013 -3,6 C 97 % 1034,4 hPa 0,2 l/m 0,0 km/h N 0,25 h 0,0 UV-I 56 W/m 0,0 km/h
27.11.2013 1,9 C 99 % 1032,2 hPa 0,8 l/m 3,3 km/h SW 0,00 h 0,0 UV-I 27 W/m 10,9 km/h
28.11.2013 4,6 C 99 % 1030,0 hPa 3,6 l/m 2,5 km/h N-NW 0,00 h 0,0 UV-I 23 W/m 7,6 km/h
29.11.2013 3,9 C 96 % 1015,3 hPa 5,4 l/m 8,6 km/h S-SW 0,00 h 0,5 UV-I 21 W/m 24,6 km/h
30.11.2013 3,6 C 98 % 1020,9 hPa 3,4 l/m 0,4 km/h N-NW 0,00 h 0,0 UV-I 20 W/m 4,8 km/h
Min-Datum 26.11.13 16.11.13 04.11.13 26 Tage 01.11.13 - - - - 01.11.13
Min-Zeit 01:50 14:05 14:45 - 00:45 - - - - 00:45
Minimum -6,1 C 67 % 982,8 hPa - 0,0 km/h - - - - 0,0 km/h
Max-Datum 07.11.13 04.11.13 26.11.13 07.11.13 04.11.13 - 16.11.13 04.11.13 04.11.13 04.11.13
Max-Zeit 10:20 21:15 10:30 11:05 12:45 - 16:10 12:40 12:40 07:00
Maximum 12,9 C 100 % 1035,7 hPa 12,8 l/m 36,4 km/h
S
- 5,75 h 1,3 UV-I 603 W/m 53,1 km/h
S
Durchschnitt 4,2 C 94 % 1015,2 hPa #83,6 l/m 3,8 km/h S #26:15 h 0,6 UV-I 67 W/m 9,9 km/h

Durchschnitt Minimum Temp.1,8 C
Durchschnitt Maximum Temp.6,7 C